createdAt,value
2023-10-23T00:01:37.621Z,100391.66
2023-10-23T00:04:43.405Z,100377.78
2023-10-23T00:07:49.160Z,100387.09
2023-10-23T00:10:52.128Z,100375.66
2023-10-23T00:13:55.401Z,100384.91
2023-10-23T00:17:02.561Z,100385.47
2023-10-23T00:20:06.230Z,100390.50
2023-10-23T00:23:09.140Z,100385.50
2023-10-23T00:26:11.901Z,100393.44
2023-10-23T00:29:20.490Z,100391.69
2023-10-23T00:32:23.620Z,100389.03
2023-10-23T00:35:26.516Z,100388.19
2023-10-23T00:38:32.533Z,100385.97
2023-10-23T00:41:36.039Z,100381.19
2023-10-23T00:44:38.790Z,100389.47
2023-10-23T00:47:41.780Z,100394.28
2023-10-23T00:50:44.703Z,100393.75
2023-10-23T00:53:48.258Z,100392.06
2023-10-23T00:56:52.999Z,100387.84
2023-10-23T00:59:55.995Z,100389.97
2023-10-23T01:02:58.788Z,100388.13
2023-10-23T01:06:01.890Z,100388.56
2023-10-23T01:09:05.004Z,100379.75
2023-10-23T01:12:08.002Z,100378.59
2023-10-23T01:15:10.760Z,100378.63
2023-10-23T01:18:13.933Z,100376.09
2023-10-23T01:21:18.976Z,100387.75
2023-10-23T01:24:25.131Z,100391.97
2023-10-23T01:27:28.889Z,100398.00
2023-10-23T01:30:32.540Z,100399.38
2023-10-23T01:33:36.042Z,100396.09
2023-10-23T01:36:40.438Z,100404.66
2023-10-23T01:39:43.329Z,100409.81
2023-10-23T01:42:48.162Z,100396.41
2023-10-23T01:45:51.302Z,100400.31
2023-10-23T01:48:54.138Z,100397.66
2023-10-23T01:52:01.542Z,100391.44
2023-10-23T01:55:04.891Z,100385.63
2023-10-23T01:58:10.044Z,100395.81
2023-10-23T02:01:22.358Z,100394.41
2023-10-23T02:04:25.579Z,100388.00
2023-10-23T02:07:28.997Z,100393.41
2023-10-23T02:10:33.130Z,100395.06
2023-10-23T02:13:36.436Z,100397.03
2023-10-23T02:16:39.464Z,100387.81
2023-10-23T02:19:42.246Z,100394.00
2023-10-23T02:22:47.117Z,100383.06
2023-10-23T02:25:51.744Z,100394.28
2023-10-23T02:28:54.410Z,100385.34
2023-10-23T02:31:57.591Z,100390.13
2023-10-23T02:35:00.491Z,100393.78
2023-10-23T02:38:03.982Z,100390.81
2023-10-23T02:41:07.048Z,100393.19
2023-10-23T02:44:12.997Z,100402.94
2023-10-23T02:47:16.104Z,100406.47
2023-10-23T02:50:22.424Z,100410.97
2023-10-23T02:53:27.347Z,100408.03
2023-10-23T02:56:34.117Z,100407.97
2023-10-23T02:59:36.928Z,100409.13
2023-10-23T03:02:39.488Z,100410.41
2023-10-23T03:05:42.925Z,100409.41
2023-10-23T03:08:45.441Z,100406.22
2023-10-23T03:11:48.281Z,100409.13
2023-10-23T03:14:51.336Z,100416.25
2023-10-23T03:17:56.133Z,100418.09
2023-10-23T03:21:03.280Z,100417.00
2023-10-23T03:24:09.220Z,100420.63
2023-10-23T03:27:12.632Z,100409.41
2023-10-23T03:30:19.139Z,100425.28
2023-10-23T03:33:22.025Z,100424.56
2023-10-23T03:36:28.802Z,100437.88
2023-10-23T03:39:31.873Z,100421.91
2023-10-23T03:42:34.734Z,100425.94
2023-10-23T03:45:42.657Z,100419.94
2023-10-23T03:48:47.108Z,100427.66
2023-10-23T03:51:50.115Z,100437.75
2023-10-23T03:54:54.674Z,100428.91
2023-10-23T03:57:58.539Z,100434.69
2023-10-23T04:01:01.217Z,100430.47
2023-10-23T04:04:08.106Z,100433.41
2023-10-23T04:07:12.277Z,100427.50
2023-10-23T04:10:15.315Z,100445.44
2023-10-23T04:13:18.261Z,100445.88
2023-10-23T04:16:21.189Z,100456.09
2023-10-23T04:19:25.545Z,100452.72
2023-10-23T04:22:28.227Z,100455.25
2023-10-23T04:25:35.404Z,100467.31
2023-10-23T04:28:38.228Z,100474.16
2023-10-23T04:31:41.237Z,100463.94
2023-10-23T04:34:46.660Z,100464.50
2023-10-23T04:37:49.623Z,100465.19
2023-10-23T04:40:54.561Z,100469.13
2023-10-23T04:43:57.172Z,100477.25
2023-10-23T04:47:01.405Z,100475.31
2023-10-23T04:50:09.067Z,100473.63
2023-10-23T04:53:13.850Z,100475.59
2023-10-23T04:56:16.698Z,100476.13
2023-10-23T04:59:28.622Z,100470.53
2023-10-23T05:02:32.092Z,100470.25
2023-10-23T05:05:35.376Z,100472.91
2023-10-23T05:08:38.214Z,100469.44
2023-10-23T05:11:45.254Z,100479.06
2023-10-23T05:14:50.306Z,100478.91
2023-10-23T05:17:55.838Z,100485.25
2023-10-23T05:20:58.818Z,100473.06
2023-10-23T05:24:01.537Z,100479.22
2023-10-23T05:27:07.154Z,100476.97
2023-10-23T05:30:10.961Z,100481.75
2023-10-23T05:33:15.183Z,100473.19
2023-10-23T05:36:18.992Z,100482.00
2023-10-23T05:39:21.745Z,100485.47
2023-10-23T05:42:24.700Z,100487.03
2023-10-23T05:45:27.591Z,100502.44
2023-10-23T05:48:30.575Z,100508.06
2023-10-23T05:51:36.117Z,100505.81
2023-10-23T05:54:39.048Z,100502.72
2023-10-23T05:57:42.138Z,100510.00
2023-10-23T06:00:45.031Z,100508.31
2023-10-23T06:03:48.419Z,100505.50
2023-10-23T06:06:51.588Z,100508.03
2023-10-23T06:09:54.663Z,100523.16
2023-10-23T06:12:57.546Z,100527.91
2023-10-23T06:16:06.196Z,100529.84
2023-10-23T06:19:10.186Z,100526.75
2023-10-23T06:22:13.093Z,100538.22
2023-10-23T06:25:18.621Z,100536.53
2023-10-23T06:28:21.455Z,100543.31
2023-10-23T06:31:26.498Z,100539.66
2023-10-23T06:34:29.273Z,100549.75
2023-10-23T06:37:34.739Z,100556.44
2023-10-23T06:40:38.331Z,100547.03
2023-10-23T06:43:42.363Z,100543.50
2023-10-23T06:46:45.013Z,100546.16
2023-10-23T06:49:47.949Z,100536.72
2023-10-23T06:52:53.180Z,100526.16
2023-10-23T06:55:56.677Z,100522.72
2023-10-23T06:59:00.064Z,100520.28
2023-10-23T07:02:03.802Z,100521.78
2023-10-23T07:05:06.983Z,100524.31
2023-10-23T07:08:10.482Z,100528.41
2023-10-23T07:11:19.252Z,100538.41
2023-10-23T07:14:22.186Z,100539.72
2023-10-23T07:17:26.136Z,100536.53
2023-10-23T07:20:29.907Z,100527.81
2023-10-23T07:23:33.226Z,100519.31
2023-10-23T07:26:36.177Z,100517.28
2023-10-23T07:29:40.883Z,100523.72
2023-10-23T07:32:44.325Z,100520.72
2023-10-23T07:35:53.520Z,100527.22
2023-10-23T07:38:56.699Z,100529.06
2023-10-23T07:41:59.430Z,100536.97
2023-10-23T07:45:02.347Z,100535.34
2023-10-23T07:48:05.099Z,100539.19
2023-10-23T07:51:08.114Z,100545.25
2023-10-23T07:54:13.416Z,100545.91
2023-10-23T07:57:16.060Z,100542.84
2023-10-23T08:00:18.936Z,100553.34
2023-10-23T08:03:21.786Z,100551.44
2023-10-23T08:06:24.534Z,100540.28
2023-10-23T08:09:27.133Z,100534.13
2023-10-23T08:12:30.057Z,100527.69
2023-10-23T08:15:32.890Z,100527.66
2023-10-23T08:18:39.092Z,100522.31
2023-10-23T08:21:43.859Z,100514.81
2023-10-23T08:24:47.205Z,100510.19
2023-10-23T08:27:52.541Z,100528.47
2023-10-23T08:30:55.446Z,100517.16
2023-10-23T08:33:58.505Z,100513.03
2023-10-23T08:37:04.327Z,100520.97
2023-10-23T08:40:08.864Z,100516.38
2023-10-23T08:43:14.241Z,100508.53
2023-10-23T08:46:17.362Z,100503.38
2023-10-23T08:49:20.516Z,100491.09
2023-10-23T08:52:27.033Z,100482.19
2023-10-23T08:55:33.765Z,100475.66
2023-10-23T08:58:38.860Z,100488.66
2023-10-23T09:01:43.375Z,100487.44
2023-10-23T09:04:47.463Z,100496.09
2023-10-23T09:07:50.736Z,100483.56
2023-10-23T09:11:04.550Z,100485.41
2023-10-23T09:14:08.942Z,100475.06
2023-10-23T09:17:11.691Z,100476.66
2023-10-23T09:20:17.174Z,100477.22
2023-10-23T09:23:20.286Z,100488.25
2023-10-23T09:26:25.688Z,100489.66
2023-10-23T09:29:29.201Z,100477.00
2023-10-23T09:32:31.658Z,100468.13
2023-10-23T09:35:38.553Z,100457.66
2023-10-23T09:38:43.359Z,100451.19
2023-10-23T09:41:49.292Z,100455.03
2023-10-23T09:44:54.286Z,100448.88
2023-10-23T09:48:00.648Z,100445.19
2023-10-23T09:51:06.892Z,100436.50
2023-10-23T09:54:19.081Z,100448.25
2023-10-23T09:57:33.642Z,100445.63
2023-10-23T10:00:39.401Z,100441.84
2023-10-23T10:03:43.988Z,100435.19
2023-10-23T10:06:57.146Z,100447.13
2023-10-23T10:10:01.108Z,100444.06
2023-10-23T10:13:05.704Z,100440.22
2023-10-23T10:16:09.114Z,100441.00
2023-10-23T10:19:13.613Z,100445.09
2023-10-23T10:22:23.956Z,100438.28
2023-10-23T10:25:29.607Z,100425.47
2023-10-23T10:28:32.565Z,100436.47
2023-10-23T10:32:13.779Z,100435.91
2023-10-23T10:35:41.962Z,100425.41
2023-10-23T10:38:49.934Z,100412.47
2023-10-23T10:41:52.797Z,100411.34
2023-10-23T10:45:16.087Z,100408.63
2023-10-23T10:48:21.950Z,100407.00
2023-10-23T10:51:26.709Z,100395.56
2023-10-23T10:54:34.020Z,100404.75
2023-10-23T10:57:43.287Z,100392.50
2023-10-23T11:00:47.351Z,100409.00
2023-10-23T11:03:50.084Z,100409.00
2023-10-23T11:06:54.206Z,100408.50
2023-10-23T11:09:57.113Z,100404.69
2023-10-23T11:13:00.346Z,100408.03
2023-10-23T11:16:06.021Z,100406.50
2023-10-23T11:19:09.125Z,100395.03
2023-10-23T11:22:13.790Z,100387.50
2023-10-23T11:25:17.039Z,100386.09
2023-10-23T11:28:20.152Z,100396.78
2023-10-23T11:31:25.609Z,100388.16
2023-10-23T11:34:29.994Z,100389.13
2023-10-23T11:37:39.990Z,100375.63
2023-10-23T11:40:46.493Z,100369.44
2023-10-23T11:43:49.060Z,100369.28
2023-10-23T11:46:53.219Z,100376.47
2023-10-23T11:49:59.106Z,100368.09
2023-10-23T11:53:01.952Z,100362.00
2023-10-23T11:56:05.048Z,100349.78
2023-10-23T11:59:08.080Z,100348.44
2023-10-23T12:02:10.992Z,100337.00
2023-10-23T12:05:16.616Z,100335.91
2023-10-23T12:08:19.501Z,100335.69
2023-10-23T12:11:22.669Z,100345.34
2023-10-23T12:14:29.777Z,100342.84
2023-10-23T12:17:32.876Z,100347.59
2023-10-23T12:20:35.594Z,100351.91
2023-10-23T12:23:39.319Z,100315.34
2023-10-23T12:26:42.296Z,100337.78
2023-10-23T12:29:45.716Z,100321.53
2023-10-23T12:33:17.522Z,100311.66
2023-10-23T12:36:11.537Z,100323.47
2023-10-23T12:39:14.289Z,100306.66
2023-10-23T12:42:19.684Z,100312.50
2023-10-23T12:45:25.363Z,100304.91
2023-10-23T12:48:28.427Z,100306.75
2023-10-23T12:51:33.872Z,100306.41
2023-10-23T12:54:36.990Z,100312.94
2023-10-23T12:57:45.221Z,100311.09
2023-10-23T13:00:48.142Z,100309.97
2023-10-23T13:03:50.819Z,100309.88
2023-10-23T13:06:54.357Z,100309.69
2023-10-23T13:09:58.380Z,100302.16
2023-10-23T13:13:01.378Z,100284.16
2023-10-23T13:16:06.775Z,100272.81
2023-10-23T13:19:12.347Z,100264.03
2023-10-23T13:22:17.800Z,100269.91
2023-10-23T13:25:20.510Z,100273.66
2023-10-23T13:28:23.569Z,100270.78
2023-10-23T13:31:29.452Z,100268.34
2023-10-23T13:34:32.209Z,100278.00
2023-10-23T13:37:35.429Z,100272.53
2023-10-23T13:40:38.107Z,100273.06
2023-10-23T13:43:42.776Z,100259.84
2023-10-23T13:46:46.309Z,100274.13
2023-10-23T13:49:49.387Z,100277.03
2023-10-23T13:52:54.813Z,100276.31
2023-10-23T13:55:59.744Z,100283.97
2023-10-23T13:59:02.779Z,100272.91
2023-10-23T14:02:05.565Z,100271.88
2023-10-23T14:05:08.855Z,100263.88
2023-10-23T14:08:11.820Z,100272.50
2023-10-23T14:11:57.050Z,100272.31
2023-10-23T14:14:41.811Z,100274.75
2023-10-23T14:17:45.208Z,100266.31
2023-10-23T14:20:50.049Z,100249.66
2023-10-23T14:23:55.509Z,100277.31
2023-10-23T14:26:58.904Z,100279.63
2023-10-23T14:30:01.662Z,100280.13
2023-10-23T14:33:04.860Z,100275.25
2023-10-23T14:36:25.257Z,100269.97
2023-10-23T14:39:28.633Z,100278.16
2023-10-23T14:42:37.287Z,100277.44
2023-10-23T14:45:41.658Z,100273.81
2023-10-23T14:48:46.879Z,100268.44
2023-10-23T14:51:52.037Z,100270.06
2023-10-23T14:54:55.539Z,100281.13
2023-10-23T14:57:58.934Z,100281.81
2023-10-23T15:01:01.907Z,100282.63
2023-10-23T15:04:05.605Z,100291.97
2023-10-23T15:07:10.025Z,100286.53
2023-10-23T15:10:13.041Z,100286.91
2023-10-23T15:13:16.182Z,100288.97
2023-10-23T15:16:19.324Z,100291.16
2023-10-23T15:19:22.276Z,100283.00
2023-10-23T15:22:29.217Z,100282.19
2023-10-23T15:25:32.066Z,100282.16
2023-10-23T15:28:36.808Z,100286.66
2023-10-23T15:31:40.256Z,100276.31
2023-10-23T15:34:45.580Z,100287.03
2023-10-23T15:37:50.274Z,100290.91
2023-10-23T15:41:04.069Z,100298.91
2023-10-23T15:44:07.012Z,100283.91
2023-10-23T15:47:11.250Z,100281.81
2023-10-23T15:50:14.101Z,100296.91
2023-10-23T15:53:24.196Z,100299.56
2023-10-23T15:56:28.033Z,100290.13
2023-10-23T15:59:32.087Z,100279.22
2023-10-23T16:02:35.168Z,100284.41
2023-10-23T16:05:39.564Z,100296.75
2023-10-23T16:08:42.585Z,100302.25
2023-10-23T16:11:45.884Z,100297.63
2023-10-23T16:14:56.669Z,100303.72
2023-10-23T16:18:00.388Z,100304.97
2023-10-23T16:21:05.104Z,100309.13
2023-10-23T16:24:12.195Z,100305.78
2023-10-23T16:27:18.057Z,100302.44
2023-10-23T16:30:21.029Z,100301.22
2023-10-23T16:33:24.864Z,100304.84
2023-10-23T16:36:30.520Z,100310.19
2023-10-23T16:39:33.322Z,100312.19
2023-10-23T16:42:36.590Z,100309.69
2023-10-23T16:45:40.912Z,100304.94
2023-10-23T16:48:46.733Z,100309.97
2023-10-23T16:51:50.192Z,100305.53
2023-10-23T16:54:53.337Z,100307.28
2023-10-23T16:57:59.415Z,100286.09
2023-10-23T17:01:07.722Z,100292.19
2023-10-23T17:04:11.326Z,100290.06
2023-10-23T17:07:16.930Z,100285.78
2023-10-23T17:10:21.611Z,100283.00
2023-10-23T17:13:25.374Z,100288.56
2023-10-23T17:16:32.725Z,100286.53
2023-10-23T17:19:36.821Z,100277.38
2023-10-23T17:22:40.779Z,100278.38
2023-10-23T17:25:47.025Z,100278.00
2023-10-23T17:28:52.568Z,100273.84
2023-10-23T17:31:56.964Z,100286.53
2023-10-23T17:35:01.414Z,100281.03
2023-10-23T17:38:06.054Z,100283.56
2023-10-23T17:41:32.806Z,100287.59
2023-10-23T17:44:36.544Z,100283.03
2023-10-23T17:47:40.660Z,100284.31
2023-10-23T17:50:45.735Z,100286.81
2023-10-23T17:56:57.605Z,100270.97
2023-10-23T18:00:01.832Z,100287.25
2023-10-23T18:03:28.166Z,100285.28
2023-10-23T18:06:32.684Z,100288.59
2023-10-23T18:09:38.596Z,100287.16
2023-10-23T18:12:42.131Z,100287.47
2023-10-23T18:15:48.626Z,100283.69
2023-10-23T18:18:52.626Z,100292.38
2023-10-23T18:22:00.788Z,100286.53
2023-10-23T18:25:05.671Z,100293.75
2023-10-23T18:28:13.138Z,100283.69
2023-10-23T18:31:22.692Z,100287.81
2023-10-23T18:34:49.098Z,100293.84
2023-10-23T18:37:54.387Z,100295.91
2023-10-23T18:41:03.268Z,100288.38
2023-10-23T18:44:11.344Z,100287.09
2023-10-23T18:47:17.751Z,100276.13
2023-10-23T18:50:27.257Z,100286.97
2023-10-23T18:53:32.306Z,100291.69
2023-10-23T18:56:38.115Z,100286.22
2023-10-23T18:59:44.433Z,100294.94
2023-10-23T19:02:49.239Z,100281.94
2023-10-23T19:06:00.431Z,100287.22
2023-10-23T19:09:06.910Z,100286.16
2023-10-23T19:12:10.668Z,100287.06
2023-10-23T19:15:15.305Z,100277.97
2023-10-23T19:18:23.069Z,100277.38
2023-10-23T19:21:27.449Z,100281.91
2023-10-23T19:24:31.279Z,100276.19
2023-10-23T19:27:36.996Z,100282.28
2023-10-23T19:30:42.974Z,100278.97
2023-10-23T19:33:49.846Z,100280.94
2023-10-23T19:36:53.232Z,100277.00
2023-10-23T19:39:56.852Z,100277.69
2023-10-23T19:43:13.792Z,100261.72
2023-10-23T19:46:19.756Z,100268.59
2023-10-23T19:49:24.881Z,100265.75
2023-10-23T19:52:28.895Z,100261.50
2023-10-23T19:55:44.935Z,100260.53
2023-10-23T19:58:50.446Z,100253.66
2023-10-23T20:01:58.621Z,100252.88
2023-10-23T20:05:04.653Z,100255.47
2023-10-23T20:08:09.107Z,100244.31
2023-10-23T20:11:12.874Z,100248.13
2023-10-23T20:14:17.601Z,100248.84
2023-10-23T20:17:21.363Z,100249.19
2023-10-23T20:20:24.991Z,100243.13
2023-10-23T20:23:28.519Z,100243.13
2023-10-23T20:26:31.447Z,100243.81
2023-10-23T20:29:37.018Z,100250.19
2023-10-23T20:32:40.080Z,100241.69
2023-10-23T20:35:45.247Z,100254.22
2023-10-23T20:38:48.700Z,100251.88
2023-10-23T20:41:54.356Z,100241.47
2023-10-23T20:44:58.624Z,100240.50
2023-10-23T20:48:01.570Z,100239.81
2023-10-23T20:51:06.534Z,100241.13
2023-10-23T20:54:09.478Z,100225.09
2023-10-23T20:57:12.308Z,100236.13
2023-10-23T21:00:15.595Z,100243.81
2023-10-23T21:03:18.604Z,100240.78
2023-10-23T21:06:22.891Z,100226.44
2023-10-23T21:09:28.628Z,100230.13
2023-10-23T21:12:32.399Z,100235.13
2023-10-23T21:15:37.659Z,100232.09
2023-10-23T21:18:40.274Z,100212.69
2023-10-23T21:21:46.656Z,100213.19
2023-10-23T21:24:51.327Z,100221.41
2023-10-23T21:27:57.742Z,100215.34
2023-10-23T21:31:02.093Z,100204.66
2023-10-23T21:34:04.909Z,100206.00
2023-10-23T21:37:08.856Z,100203.81
2023-10-23T21:40:12.304Z,100204.00
2023-10-23T21:43:16.091Z,100202.63
2023-10-23T21:46:19.230Z,100194.97
2023-10-23T21:49:24.402Z,100192.78
2023-10-23T21:52:28.654Z,100196.13
2023-10-23T21:55:31.751Z,100190.63
2023-10-23T21:59:05.360Z,100196.66
2023-10-23T22:01:58.744Z,100191.53
2023-10-23T22:05:01.541Z,100186.00
2023-10-23T22:08:04.604Z,100184.66
2023-10-23T22:11:08.850Z,100177.28
2023-10-23T22:14:12.256Z,100173.38
2023-10-23T22:17:15.036Z,100175.06
2023-10-23T22:20:18.135Z,100175.88
2023-10-23T22:23:21.192Z,100179.72
2023-10-23T22:26:23.756Z,100178.72
2023-10-23T22:29:26.820Z,100150.69
2023-10-23T22:32:29.677Z,100174.72
2023-10-23T22:35:35.394Z,100170.38
2023-10-23T22:38:38.301Z,100164.53
2023-10-23T22:41:41.794Z,100154.63
2023-10-23T22:44:44.744Z,100165.34
2023-10-23T22:47:47.327Z,100156.97
2023-10-23T22:50:50.378Z,100152.00
2023-10-23T22:53:53.639Z,100155.50
2023-10-23T22:57:04.765Z,100160.72
2023-10-23T23:00:12.727Z,100173.09
2023-10-23T23:03:15.853Z,100155.00
2023-10-23T23:06:21.043Z,100149.81
2023-10-23T23:09:23.835Z,100148.16
2023-10-23T23:12:26.869Z,100144.81
2023-10-23T23:15:30.468Z,100137.97
2023-10-23T23:18:36.359Z,100138.28
2023-10-23T23:21:43.132Z,100131.44
2023-10-23T23:24:45.956Z,100134.28
2023-10-23T23:27:51.748Z,100129.94
2023-10-23T23:30:54.559Z,100121.25
2023-10-23T23:33:57.389Z,100105.69
2023-10-23T23:36:59.912Z,100109.56
2023-10-23T23:40:02.848Z,100104.53
2023-10-23T23:43:08.703Z,100112.41
2023-10-23T23:46:11.401Z,100111.38
2023-10-23T23:49:15.503Z,100108.88
2023-10-23T23:52:18.233Z,100119.56
2023-10-23T23:55:23.111Z,100109.53
2023-10-23T23:58:26.810Z,100122.56
